createdAt,value
2023-03-17T00:01:34.432Z,3.10
2023-03-17T00:04:02.105Z,2.50
2023-03-17T00:06:30.817Z,5.57
2023-03-17T00:08:58.956Z,3.80
2023-03-17T00:11:28.377Z,3.95
2023-03-17T00:13:55.988Z,3.75
2023-03-17T00:16:25.472Z,4.18
2023-03-17T00:18:53.699Z,3.72
2023-03-17T00:21:24.597Z,3.63
2023-03-17T00:23:52.769Z,3.78
2023-03-17T00:26:20.673Z,4.25
2023-03-17T00:28:50.993Z,4.45
2023-03-17T00:31:21.148Z,4.15
2023-03-17T00:33:50.013Z,3.35
2023-03-17T00:36:19.298Z,3.25
2023-03-17T00:38:47.089Z,5.47
2023-03-17T00:41:14.810Z,3.58
2023-03-17T00:43:42.898Z,2.47
2023-03-17T00:46:14.750Z,6.40
2023-03-17T00:48:43.475Z,3.45
2023-03-17T00:51:11.372Z,4.05
2023-03-17T00:53:39.137Z,3.20
2023-03-17T00:56:11.822Z,3.47
2023-03-17T00:58:40.118Z,4.10
2023-03-17T01:01:08.680Z,3.85
2023-03-17T01:03:37.670Z,3.83
2023-03-17T01:06:06.105Z,3.42
2023-03-17T01:08:33.964Z,3.35
2023-03-17T01:11:02.021Z,4.38
2023-03-17T01:13:29.631Z,3.25
2023-03-17T01:15:57.776Z,4.07
2023-03-17T01:18:25.778Z,3.00
2023-03-17T01:20:54.790Z,3.28
2023-03-17T01:23:22.638Z,4.45
2023-03-17T01:25:50.338Z,3.88
2023-03-17T01:28:19.114Z,3.75
2023-03-17T01:30:47.229Z,2.90
2023-03-17T01:33:15.061Z,3.05
2023-03-17T01:35:43.784Z,3.22
2023-03-17T01:38:13.200Z,4.07
2023-03-17T01:40:43.981Z,3.25
2023-03-17T01:43:18.392Z,3.00
2023-03-17T01:46:04.657Z,4.70
2023-03-17T01:48:35.548Z,4.13
2023-03-17T01:51:04.213Z,6.40
2023-03-17T01:53:33.583Z,3.75
2023-03-17T01:56:01.970Z,3.92
2023-03-17T01:58:29.600Z,3.70
2023-03-17T02:00:57.187Z,4.22
2023-03-17T02:03:25.001Z,3.45
2023-03-17T02:05:53.088Z,4.45
2023-03-17T02:08:21.121Z,3.85
2023-03-17T02:10:50.721Z,4.85
2023-03-17T02:13:18.318Z,3.80
2023-03-17T02:15:48.402Z,5.20
2023-03-17T02:18:17.199Z,3.90
2023-03-17T02:21:15.433Z,4.38
2023-03-17T02:23:44.381Z,4.90
2023-03-17T02:26:12.585Z,4.75
2023-03-17T02:28:41.093Z,4.47
2023-03-17T02:31:09.495Z,5.03
2023-03-17T02:33:37.164Z,3.70
2023-03-17T02:36:05.027Z,2.97
2023-03-17T02:38:32.634Z,4.25
2023-03-17T02:41:01.768Z,3.45
2023-03-17T02:43:29.326Z,3.47
2023-03-17T02:45:56.881Z,3.22
2023-03-17T02:48:24.405Z,4.30
2023-03-17T02:50:51.927Z,5.88
2023-03-17T02:53:19.561Z,4.07
2023-03-17T02:55:47.151Z,3.25
2023-03-17T02:58:16.099Z,3.88
2023-03-17T03:00:43.652Z,3.45
2023-03-17T03:03:11.181Z,4.95
2023-03-17T03:05:39.204Z,4.10
2023-03-17T03:08:07.148Z,4.22
2023-03-17T03:10:34.684Z,4.93
2023-03-17T03:13:03.106Z,4.20
2023-03-17T03:15:32.049Z,4.53
2023-03-17T03:17:59.634Z,4.03
2023-03-17T03:20:27.722Z,5.45
2023-03-17T03:22:55.357Z,5.10
2023-03-17T03:25:23.005Z,4.72
2023-03-17T03:27:50.841Z,3.97
2023-03-17T03:30:18.500Z,5.00
2023-03-17T03:32:47.803Z,3.58
2023-03-17T03:35:15.441Z,4.55
2023-03-17T03:37:42.969Z,3.17
2023-03-17T03:40:11.340Z,4.57
2023-03-17T03:42:38.894Z,4.03
2023-03-17T03:45:07.000Z,3.53
2023-03-17T03:47:34.567Z,4.10
2023-03-17T03:50:03.459Z,4.93
2023-03-17T03:52:31.104Z,3.33
2023-03-17T03:54:58.683Z,3.35
2023-03-17T03:57:26.462Z,3.67
2023-03-17T03:59:54.021Z,4.85
2023-03-17T04:02:21.675Z,4.65
2023-03-17T04:04:49.880Z,5.03
2023-03-17T04:07:18.817Z,4.32
2023-03-17T04:09:46.381Z,3.63
2023-03-17T04:12:13.926Z,4.35
2023-03-17T04:14:42.383Z,4.30
2023-03-17T04:17:10.094Z,3.75
2023-03-17T04:19:38.163Z,3.75
2023-03-17T04:22:06.214Z,5.95
2023-03-17T04:24:35.779Z,4.47
2023-03-17T04:27:05.870Z,3.38
2023-03-17T04:29:33.774Z,3.90
2023-03-17T04:32:01.376Z,3.95
2023-03-17T04:34:29.102Z,5.63
2023-03-17T04:36:56.918Z,3.85
2023-03-17T04:39:24.508Z,5.20
2023-03-17T04:41:53.441Z,3.30
2023-03-17T04:44:20.989Z,4.20
2023-03-17T04:46:48.531Z,4.75
2023-03-17T04:49:16.384Z,5.15
2023-03-17T04:51:43.944Z,4.07
2023-03-17T04:54:12.179Z,4.47
2023-03-17T04:56:39.954Z,3.75
2023-03-17T04:59:09.043Z,5.30
2023-03-17T05:01:39.066Z,3.80
2023-03-17T05:04:06.831Z,4.57
2023-03-17T05:06:34.439Z,5.85
2023-03-17T05:09:01.982Z,3.63
2023-03-17T05:11:29.520Z,4.05
2023-03-17T05:13:57.089Z,3.05
2023-03-17T05:16:26.075Z,5.95
2023-03-17T05:18:53.678Z,4.10
2023-03-17T05:21:21.236Z,3.95
2023-03-17T05:23:48.979Z,3.25
2023-03-17T05:26:16.603Z,4.40
2023-03-17T05:28:44.173Z,5.30
2023-03-17T05:31:11.800Z,3.63
2023-03-17T05:33:40.803Z,6.72
2023-03-17T05:36:08.634Z,4.18
2023-03-17T05:38:36.197Z,4.40
2023-03-17T05:41:04.124Z,3.88
2023-03-17T05:43:31.700Z,3.78
2023-03-17T05:45:59.302Z,4.13
2023-03-17T05:48:26.881Z,4.10
2023-03-17T05:50:55.753Z,3.78
2023-03-17T05:53:23.641Z,4.00
2023-03-17T05:55:51.999Z,4.20
2023-03-17T05:58:19.540Z,3.97
2023-03-17T06:00:47.178Z,5.57
2023-03-17T06:03:14.900Z,4.40
2023-03-17T06:05:42.518Z,6.28
2023-03-17T06:08:11.504Z,5.13
2023-03-17T06:10:39.022Z,4.93
2023-03-17T06:13:06.561Z,3.97
2023-03-17T06:15:36.215Z,4.20
2023-03-17T06:18:05.154Z,3.88
2023-03-17T06:20:32.675Z,3.78
2023-03-17T06:23:05.080Z,4.65
2023-03-17T06:25:34.742Z,6.45
2023-03-17T06:28:03.954Z,5.63
2023-03-17T06:30:32.828Z,4.65
2023-03-17T06:33:01.155Z,4.18
2023-03-17T06:35:29.453Z,4.95
2023-03-17T06:37:57.193Z,4.47
2023-03-17T06:40:25.090Z,4.93
2023-03-17T06:42:54.166Z,3.72
2023-03-17T06:45:21.772Z,4.25
2023-03-17T06:47:49.369Z,4.30
2023-03-17T06:50:17.048Z,4.63
2023-03-17T06:52:46.625Z,5.63
2023-03-17T06:55:15.232Z,5.63
2023-03-17T06:57:43.003Z,4.95
2023-03-17T07:00:14.140Z,5.83
2023-03-17T07:02:42.178Z,5.60
2023-03-17T07:05:10.013Z,4.75
2023-03-17T07:07:37.701Z,4.85
2023-03-17T07:10:05.746Z,5.78
2023-03-17T07:12:34.298Z,4.77
2023-03-17T07:15:02.236Z,5.32
2023-03-17T07:17:31.539Z,4.47
2023-03-17T07:20:01.155Z,5.53
2023-03-17T07:22:30.443Z,5.70
2023-03-17T07:24:58.469Z,4.90
2023-03-17T07:27:26.691Z,4.65
2023-03-17T07:29:56.305Z,4.85
2023-03-17T07:32:25.708Z,6.05
2023-03-17T07:34:56.876Z,6.55
2023-03-17T07:37:26.122Z,5.47
2023-03-17T07:39:56.958Z,5.55
2023-03-17T07:42:26.309Z,6.75
2023-03-17T07:44:55.609Z,5.05
2023-03-17T07:47:24.929Z,6.07
2023-03-17T07:49:54.954Z,6.40
2023-03-17T07:52:25.940Z,4.95
2023-03-17T07:54:55.220Z,5.97
2023-03-17T07:57:24.804Z,5.53
2023-03-17T07:59:54.265Z,5.28
2023-03-17T08:02:24.204Z,5.87
2023-03-17T08:04:54.424Z,5.45
2023-03-17T08:07:23.528Z,5.03
2023-03-17T08:09:54.859Z,4.70
2023-03-17T08:12:22.559Z,4.55
2023-03-17T08:14:50.332Z,5.90
2023-03-17T08:17:18.075Z,4.53
2023-03-17T08:19:45.631Z,4.18
2023-03-17T08:22:13.454Z,5.45
2023-03-17T08:24:42.891Z,6.82
2023-03-17T08:27:12.002Z,5.37
2023-03-17T08:29:39.631Z,5.13
2023-03-17T08:32:07.711Z,4.85
2023-03-17T08:34:36.122Z,5.45
2023-03-17T08:37:03.855Z,5.20
2023-03-17T08:39:31.701Z,6.00
2023-03-17T08:41:59.408Z,5.90
2023-03-17T08:44:28.549Z,5.28
2023-03-17T08:46:56.432Z,5.95
2023-03-17T08:49:23.995Z,6.45
2023-03-17T08:51:51.723Z,6.20
2023-03-17T08:54:19.297Z,6.13
2023-03-17T08:56:47.038Z,6.93
2023-03-17T08:59:16.848Z,5.10
2023-03-17T09:01:46.050Z,5.82
2023-03-17T09:04:13.761Z,6.20
2023-03-17T09:06:51.804Z,5.35
2023-03-17T09:09:30.831Z,6.43
2023-03-17T09:11:58.384Z,6.78
2023-03-17T09:14:25.965Z,5.68
2023-03-17T09:16:55.462Z,6.03
2023-03-17T09:19:23.824Z,6.18
2023-03-17T09:21:51.924Z,5.00
2023-03-17T09:24:19.999Z,5.70
2023-03-17T09:26:47.591Z,5.32
2023-03-17T09:29:15.368Z,6.07
2023-03-17T09:31:43.079Z,5.65
2023-03-17T09:34:12.336Z,5.40
2023-03-17T09:36:40.158Z,5.55
2023-03-17T09:39:08.814Z,5.35
2023-03-17T09:41:51.287Z,6.47
2023-03-17T09:44:23.407Z,5.55
2023-03-17T09:46:55.680Z,6.45
2023-03-17T09:49:27.557Z,5.00
2023-03-17T09:51:55.151Z,6.35
2023-03-17T09:54:25.669Z,6.13
2023-03-17T09:57:01.719Z,5.78
2023-03-17T09:59:30.546Z,6.28
2023-03-17T10:01:58.298Z,5.15
2023-03-17T10:04:28.068Z,6.53
2023-03-17T10:06:58.954Z,6.90
2023-03-17T10:09:31.665Z,5.75
2023-03-17T10:12:03.273Z,5.90
2023-03-17T10:14:36.162Z,5.57
2023-03-17T10:17:06.940Z,6.55
2023-03-17T10:19:38.105Z,6.23
2023-03-17T10:22:08.099Z,7.60
2023-03-17T10:24:35.643Z,6.72
2023-03-17T10:27:06.397Z,7.50
2023-03-17T10:29:34.303Z,6.25
2023-03-17T10:32:01.890Z,6.53
2023-03-17T10:34:30.729Z,7.43
2023-03-17T10:37:03.145Z,6.45
2023-03-17T10:39:32.723Z,5.38
2023-03-17T10:42:01.799Z,5.32
2023-03-17T10:44:32.113Z,5.70
2023-03-17T10:46:59.783Z,6.15
2023-03-17T10:49:27.650Z,5.93
2023-03-17T10:51:55.652Z,6.80
2023-03-17T10:54:26.524Z,6.75
2023-03-17T10:57:00.968Z,6.73
2023-03-17T11:01:58.382Z,6.82
2023-03-17T11:04:30.511Z,7.05
2023-03-17T11:06:58.892Z,6.82
2023-03-17T11:09:29.300Z,6.47
2023-03-17T11:12:04.467Z,7.15
2023-03-17T11:14:32.225Z,8.77
2023-03-17T11:17:01.419Z,7.35
2023-03-17T11:19:33.877Z,8.27
2023-03-17T11:22:04.964Z,7.83
2023-03-17T11:24:36.481Z,7.63
2023-03-17T11:27:11.049Z,7.78
2023-03-17T11:29:45.654Z,7.97
2023-03-17T11:32:21.243Z,7.38
2023-03-17T11:34:53.189Z,7.57
2023-03-17T11:37:26.151Z,8.13
2023-03-17T11:39:58.906Z,8.88
2023-03-17T11:42:28.670Z,6.65
2023-03-17T11:45:04.931Z,7.05
2023-03-17T11:47:39.675Z,6.47
2023-03-17T11:50:12.451Z,6.83
2023-03-17T11:52:53.231Z,8.15
2023-03-17T11:55:24.316Z,7.63
2023-03-17T11:57:54.580Z,7.40
2023-03-17T12:00:26.188Z,8.43
2023-03-17T12:02:56.352Z,8.20
2023-03-17T12:05:25.297Z,8.10
2023-03-17T12:07:54.963Z,8.40
2023-03-17T12:10:25.614Z,8.60
2023-03-17T12:12:56.372Z,9.05
2023-03-17T12:15:28.083Z,7.33
2023-03-17T12:17:57.535Z,8.75
2023-03-17T12:20:30.849Z,7.60
2023-03-17T12:23:00.965Z,7.38
2023-03-17T12:25:32.690Z,8.43
2023-03-17T12:28:02.038Z,8.03
2023-03-17T12:30:31.957Z,8.25
2023-03-17T12:33:07.914Z,7.85
2023-03-17T12:35:37.147Z,8.10
2023-03-17T12:38:09.014Z,8.75
2023-03-17T12:40:39.571Z,6.40
2023-03-17T12:43:18.504Z,9.27
2023-03-17T12:45:54.363Z,7.30
2023-03-17T12:48:36.824Z,8.15
2023-03-17T12:51:10.253Z,7.68
2023-03-17T12:53:38.877Z,6.73
2023-03-17T12:56:11.913Z,8.27
2023-03-17T13:05:00.584Z,8.35
2023-03-17T13:07:32.516Z,6.90
2023-03-17T13:10:18.814Z,8.35
2023-03-17T13:13:05.723Z,7.45
2023-03-17T13:15:52.186Z,7.50
2023-03-17T13:18:53.680Z,6.25
2023-03-17T13:21:24.984Z,8.23
2023-03-17T13:30:59.205Z,7.22
2023-03-17T13:33:29.955Z,6.37
2023-03-17T13:36:00.828Z,8.15
2023-03-17T13:38:32.695Z,8.38
2023-03-17T13:41:10.425Z,7.22
2023-03-17T13:43:49.616Z,11.75
2023-03-17T13:46:22.280Z,7.87
2023-03-17T13:56:16.798Z,7.25
2023-03-17T13:58:57.646Z,8.35
2023-03-17T14:01:25.631Z,7.97
2023-03-17T14:03:56.823Z,8.73
2023-03-17T14:06:31.339Z,7.43
2023-03-17T14:09:01.615Z,7.68
2023-03-17T14:11:35.647Z,7.93
2023-03-17T14:14:26.117Z,6.95
2023-03-17T14:17:02.361Z,10.05
2023-03-17T14:19:31.134Z,8.87
2023-03-17T14:22:04.252Z,7.40
2023-03-17T14:24:32.696Z,7.38
2023-03-17T14:27:07.237Z,8.02
2023-03-17T14:29:35.084Z,8.32
2023-03-17T14:32:04.364Z,10.87
2023-03-17T14:34:32.329Z,6.97
2023-03-17T14:37:01.566Z,7.63
2023-03-17T14:39:29.722Z,7.88
2023-03-17T14:42:06.670Z,8.10
2023-03-17T14:44:37.852Z,9.57
2023-03-17T14:47:06.727Z,8.63
2023-03-17T14:49:34.507Z,10.30
2023-03-17T14:52:02.609Z,8.70
2023-03-17T14:54:31.650Z,7.40
2023-03-17T14:57:02.241Z,8.00
2023-03-17T14:59:33.937Z,8.32
2023-03-17T15:02:02.909Z,9.38
2023-03-17T15:04:31.192Z,9.02
2023-03-17T15:06:59.448Z,8.13
2023-03-17T15:09:28.597Z,8.13
2023-03-17T15:11:56.988Z,8.85
2023-03-17T15:14:29.091Z,8.95
2023-03-17T15:16:58.125Z,7.97
2023-03-17T15:19:28.886Z,8.32
2023-03-17T15:22:00.263Z,9.07
2023-03-17T15:24:35.207Z,8.65
2023-03-17T15:27:04.506Z,8.57
2023-03-17T15:29:32.071Z,10.38
2023-03-17T15:32:03.488Z,9.18
2023-03-17T15:34:31.174Z,8.87
2023-03-17T15:36:59.189Z,9.55
2023-03-17T15:39:26.737Z,8.93
2023-03-17T15:41:54.321Z,9.02
2023-03-17T15:44:21.895Z,8.65
2023-03-17T15:46:49.521Z,7.63
2023-03-17T15:49:18.434Z,8.82
2023-03-17T15:51:45.988Z,9.57
2023-03-17T15:54:14.981Z,8.15
2023-03-17T15:56:43.835Z,8.02
2023-03-17T15:59:12.788Z,8.83
2023-03-17T16:01:40.827Z,8.82
2023-03-17T16:04:09.000Z,8.35
2023-03-17T16:06:37.974Z,8.30
2023-03-17T16:09:07.359Z,9.18
2023-03-17T16:11:34.944Z,10.37
2023-03-17T16:14:02.496Z,8.88
2023-03-17T16:16:31.635Z,8.60
2023-03-17T16:19:00.164Z,8.82
2023-03-17T16:21:28.281Z,10.88
2023-03-17T16:23:57.772Z,9.60
2023-03-17T16:26:25.389Z,9.07
2023-03-17T16:28:53.902Z,10.27
2023-03-17T16:31:26.187Z,10.07
2023-03-17T16:33:54.932Z,11.15
2023-03-17T16:36:23.807Z,10.60
2023-03-17T16:38:52.081Z,12.52
2023-03-17T16:41:22.264Z,10.02
2023-03-17T16:43:52.098Z,9.27
2023-03-17T16:46:20.983Z,8.98
2023-03-17T16:48:49.491Z,9.13
2023-03-17T16:51:17.610Z,10.07
2023-03-17T16:53:45.453Z,11.10
2023-03-17T16:56:15.454Z,16.85
2023-03-17T16:58:44.588Z,9.40
2023-03-17T17:01:13.776Z,9.63
2023-03-17T17:03:41.313Z,10.35
2023-03-17T17:06:09.310Z,9.48
2023-03-17T17:08:36.876Z,10.68
2023-03-17T17:11:04.512Z,12.60
2023-03-17T17:13:32.101Z,9.17
2023-03-17T17:16:01.203Z,9.93
2023-03-17T17:18:28.811Z,10.05
2023-03-17T17:20:56.813Z,10.80
2023-03-17T17:23:25.369Z,11.15
2023-03-17T17:25:53.654Z,9.90
2023-03-17T17:28:22.427Z,12.27
2023-03-17T17:30:50.684Z,10.52
2023-03-17T17:33:20.095Z,10.30
2023-03-17T17:35:48.243Z,11.32
2023-03-17T17:38:20.382Z,13.23
2023-03-17T17:40:48.805Z,10.73
2023-03-17T17:43:18.048Z,12.02
2023-03-17T17:45:48.473Z,10.55
2023-03-17T17:48:16.549Z,9.85
2023-03-17T17:50:45.646Z,9.40
2023-03-17T17:53:14.806Z,9.25
2023-03-17T17:55:44.155Z,10.75
2023-03-17T17:58:13.657Z,11.50
2023-03-17T18:00:41.487Z,9.23
2023-03-17T18:03:09.231Z,9.87
2023-03-17T18:05:37.149Z,9.80
2023-03-17T18:08:06.545Z,8.75
2023-03-17T18:10:34.794Z,10.30
2023-03-17T18:13:02.646Z,10.45
2023-03-17T18:15:30.213Z,10.70
2023-03-17T18:17:57.746Z,9.68
2023-03-17T18:20:25.744Z,9.73
2023-03-17T18:22:54.143Z,9.98
2023-03-17T18:25:25.335Z,9.90
2023-03-17T18:27:52.866Z,11.70
2023-03-17T18:30:22.310Z,10.60
2023-03-17T18:32:50.749Z,10.27
2023-03-17T18:35:19.545Z,19.42
2023-03-17T18:37:47.216Z,42.60
2023-03-17T18:40:18.748Z,29.10
2023-03-17T18:42:48.392Z,32.83
2023-03-17T18:45:16.002Z,25.83
2023-03-17T18:47:43.636Z,21.20
2023-03-17T18:50:11.898Z,13.73
2023-03-17T18:52:40.362Z,16.27
2023-03-17T18:55:08.720Z,15.85
2023-03-17T18:57:36.792Z,14.63
2023-03-17T19:00:06.873Z,13.32
2023-03-17T19:02:34.476Z,16.58
2023-03-17T19:05:02.179Z,16.87
2023-03-17T19:07:29.717Z,15.48
2023-03-17T19:09:57.285Z,16.88
2023-03-17T19:12:25.486Z,14.93
2023-03-17T19:14:53.055Z,17.00
2023-03-17T19:17:22.707Z,17.53
2023-03-17T19:19:52.166Z,16.42
2023-03-17T19:22:19.750Z,19.20
2023-03-17T19:24:48.025Z,16.23
2023-03-17T19:27:15.646Z,17.65
2023-03-17T19:29:43.286Z,14.93
2023-03-17T19:32:10.830Z,15.45
2023-03-17T19:34:39.856Z,18.90
2023-03-17T19:37:07.432Z,17.27
2023-03-17T19:39:34.989Z,18.67
2023-03-17T19:42:02.647Z,17.20
2023-03-17T19:44:30.427Z,18.00
2023-03-17T19:46:57.978Z,17.70
2023-03-17T19:49:26.219Z,16.17
2023-03-17T19:51:55.261Z,14.15
2023-03-17T19:54:23.442Z,18.87
2023-03-17T19:56:51.841Z,17.02
2023-03-17T19:59:19.804Z,15.35
2023-03-17T20:01:48.730Z,15.65
2023-03-17T20:04:19.523Z,17.02
2023-03-17T20:06:47.644Z,15.27
2023-03-17T20:09:17.107Z,14.55
2023-03-17T20:11:44.673Z,16.77
2023-03-17T20:14:12.352Z,16.48
2023-03-17T20:16:41.503Z,15.20
2023-03-17T20:19:09.320Z,16.60
2023-03-17T20:21:37.672Z,15.00
2023-03-17T20:24:05.572Z,17.88
2023-03-17T20:26:34.873Z,14.93
2023-03-17T20:29:02.878Z,14.00
2023-03-17T20:31:30.738Z,12.90
2023-03-17T20:33:58.431Z,11.65
2023-03-17T20:36:26.011Z,12.77
2023-03-17T20:38:53.580Z,12.00
2023-03-17T20:41:21.204Z,13.82
2023-03-17T20:43:50.141Z,13.13
2023-03-17T20:46:18.696Z,16.15
2023-03-17T20:48:48.093Z,11.35
2023-03-17T20:51:17.220Z,12.55
2023-03-17T20:53:46.255Z,21.00
2023-03-17T20:56:15.703Z,16.13
2023-03-17T20:58:43.630Z,16.70
2023-03-17T21:01:12.781Z,18.05
2023-03-17T21:03:40.379Z,24.48
2023-03-17T21:06:08.054Z,20.77
2023-03-17T21:08:35.629Z,19.43
2023-03-17T21:11:03.490Z,22.50
2023-03-17T21:13:31.434Z,23.98
2023-03-17T21:15:59.270Z,19.85
2023-03-17T21:18:28.642Z,14.90
2023-03-17T21:20:56.784Z,11.30
2023-03-17T21:23:24.650Z,12.48
2023-03-17T21:25:56.175Z,14.20
2023-03-17T21:28:23.931Z,14.25
2023-03-17T21:30:51.546Z,13.20
2023-03-17T21:33:19.442Z,13.63
2023-03-17T21:35:48.522Z,18.50
2023-03-17T21:38:16.452Z,17.60
2023-03-17T21:40:44.170Z,17.83
2023-03-17T21:43:11.764Z,17.10
2023-03-17T21:45:40.562Z,14.67
2023-03-17T21:48:08.133Z,15.55
2023-03-17T21:50:35.711Z,17.48
2023-03-17T21:53:04.901Z,19.67
2023-03-17T21:55:32.536Z,15.63
2023-03-17T21:58:00.149Z,17.53
2023-03-17T22:00:35.988Z,16.50
2023-03-17T22:03:10.470Z,14.43
2023-03-17T22:05:38.227Z,15.57
2023-03-17T22:08:07.558Z,16.83
2023-03-17T22:10:35.098Z,15.37
2023-03-17T22:13:02.703Z,15.73
2023-03-17T22:15:30.467Z,15.40
2023-03-17T22:17:59.183Z,12.75
2023-03-17T22:20:26.830Z,15.02
2023-03-17T22:22:54.399Z,15.53
2023-03-17T22:25:23.862Z,20.35
2023-03-17T22:27:51.428Z,16.27
2023-03-17T22:30:19.104Z,16.67
2023-03-17T22:32:46.833Z,16.40
2023-03-17T22:35:14.426Z,18.73
2023-03-17T22:37:42.419Z,15.35
2023-03-17T22:40:10.635Z,22.48
2023-03-17T22:42:39.594Z,15.65
2023-03-17T22:45:08.548Z,14.55
2023-03-17T22:47:36.116Z,16.33
2023-03-17T22:50:03.686Z,15.63
2023-03-17T22:52:31.491Z,15.57
2023-03-17T22:54:59.116Z,15.27
2023-03-17T22:57:26.648Z,17.15
2023-03-17T22:59:57.132Z,17.10
2023-03-17T23:02:25.094Z,15.82
2023-03-17T23:04:52.754Z,15.65
2023-03-17T23:07:20.496Z,17.65
2023-03-17T23:09:48.351Z,18.88
2023-03-17T23:12:16.238Z,14.70
2023-03-17T23:14:43.968Z,15.40
2023-03-17T23:17:13.314Z,17.83
2023-03-17T23:19:41.109Z,16.90
2023-03-17T23:22:08.744Z,19.35
2023-03-17T23:24:36.321Z,14.63
2023-03-17T23:27:03.858Z,16.05
2023-03-17T23:29:31.551Z,15.32
2023-03-17T23:32:00.400Z,15.07
2023-03-17T23:34:29.710Z,17.75
2023-03-17T23:36:57.430Z,17.93
2023-03-17T23:39:25.510Z,18.92
2023-03-17T23:41:53.083Z,17.83
2023-03-17T23:44:21.538Z,18.10
2023-03-17T23:46:49.702Z,15.38
2023-03-17T23:49:17.238Z,14.97
2023-03-17T23:51:46.145Z,14.88
2023-03-17T23:54:14.335Z,18.73
2023-03-17T23:56:41.975Z,14.48
2023-03-17T23:59:10.737Z,16.08
